createdAt,value
2017-08-22T00:02:11.497Z,18.34
2017-08-22T00:04:44.268Z,18.32
2017-08-22T00:07:15.941Z,18.28
2017-08-22T00:09:47.280Z,18.25
2017-08-22T00:12:18.619Z,18.24
2017-08-22T00:14:50.402Z,18.23
2017-08-22T00:17:21.769Z,18.17
2017-08-22T00:19:53.403Z,18.14
2017-08-22T00:22:25.153Z,18.16
2017-08-22T00:24:56.476Z,18.13
2017-08-22T00:27:28.021Z,18.08
2017-08-22T00:29:59.788Z,18.08
2017-08-22T00:32:33.656Z,18.07
2017-08-22T00:35:05.109Z,18.04
2017-08-22T00:37:36.801Z,18.05
2017-08-22T00:40:12.281Z,18.01
2017-08-22T00:42:44.905Z,17.97
2017-08-22T00:45:16.638Z,17.94
2017-08-22T00:47:47.980Z,17.94
2017-08-22T00:50:19.380Z,17.93
2017-08-22T00:52:51.074Z,17.91
2017-08-22T00:55:22.398Z,17.88
2017-08-22T00:57:53.757Z,17.87
2017-08-22T01:00:25.814Z,17.84
2017-08-22T01:02:57.206Z,17.86
2017-08-22T01:05:28.916Z,17.85
2017-08-22T01:08:00.553Z,17.84
2017-08-22T01:10:33.317Z,17.76
2017-08-22T01:13:05.081Z,17.71
2017-08-22T01:15:37.979Z,17.75
2017-08-22T01:18:09.374Z,17.77
2017-08-22T01:20:40.746Z,17.75
2017-08-22T01:23:12.496Z,17.75
2017-08-22T01:25:44.178Z,17.72
2017-08-22T01:28:15.527Z,17.66
2017-08-22T01:30:47.623Z,17.65
2017-08-22T01:33:18.956Z,17.60
2017-08-22T01:35:50.683Z,17.55
2017-08-22T01:38:22.036Z,17.52
2017-08-22T01:40:53.401Z,17.42
2017-08-22T01:43:24.757Z,17.37
2017-08-22T01:45:56.164Z,17.32
2017-08-22T01:48:28.089Z,17.34
2017-08-22T01:50:59.490Z,17.29
2017-08-22T01:53:33.244Z,17.24
2017-08-22T01:56:05.626Z,17.16
2017-08-22T01:58:37.005Z,17.12
2017-08-22T02:01:08.929Z,17.12
2017-08-22T02:03:40.288Z,17.08
2017-08-22T02:06:11.890Z,17.04
2017-08-22T02:08:43.213Z,17.02
2017-08-22T02:11:14.565Z,16.96
2017-08-22T02:13:45.946Z,16.92
2017-08-22T02:16:17.390Z,16.91
2017-08-22T02:18:50.289Z,16.94
2017-08-22T02:21:21.602Z,16.93
2017-08-22T02:23:53.218Z,16.89
2017-08-22T02:26:24.674Z,16.87
2017-08-22T02:28:56.066Z,16.85
2017-08-22T02:31:28.521Z,16.83
2017-08-22T02:33:59.947Z,16.85
2017-08-22T02:36:32.030Z,16.86
2017-08-22T02:42:12.224Z,16.79
2017-08-22T02:44:50.996Z,16.76
2017-08-22T02:47:22.774Z,16.74
2017-08-22T02:49:54.208Z,16.70
2017-08-22T02:52:25.568Z,16.69
2017-08-22T02:54:57.231Z,16.68
2017-08-22T02:57:28.996Z,16.69
2017-08-22T03:00:00.617Z,16.70
2017-08-22T03:02:35.143Z,16.71
2017-08-22T03:05:07.642Z,16.73
2017-08-22T03:07:39.011Z,16.68
2017-08-22T03:10:10.625Z,16.67
2017-08-22T03:12:42.325Z,16.67
2017-08-22T03:15:13.726Z,16.67
2017-08-22T03:17:45.112Z,16.62
2017-08-22T03:20:17.881Z,16.57
2017-08-22T03:22:49.272Z,16.52
2017-08-22T03:25:20.660Z,16.48
2017-08-22T03:27:52.473Z,16.52
2017-08-22T03:30:23.883Z,16.46
2017-08-22T03:32:55.564Z,16.48
2017-08-22T03:35:26.954Z,16.47
2017-08-22T03:37:58.293Z,16.48
2017-08-22T03:40:30.863Z,16.52
2017-08-22T03:43:02.613Z,16.47
2017-08-22T03:45:34.401Z,16.43
2017-08-22T03:48:06.909Z,16.41
2017-08-22T03:50:39.808Z,16.42
2017-08-22T03:53:11.177Z,16.39
2017-08-22T03:55:42.865Z,16.37
2017-08-22T03:58:14.222Z,16.34
2017-08-22T04:00:45.580Z,16.32
2017-08-22T04:03:17.655Z,16.26
2017-08-22T04:05:49.017Z,16.23
2017-08-22T04:08:20.374Z,16.39
2017-08-22T04:10:52.250Z,16.33
2017-08-22T04:13:23.664Z,16.31
2017-08-22T04:15:55.032Z,16.32
2017-08-22T04:18:26.782Z,16.33
2017-08-22T04:20:58.115Z,16.27
2017-08-22T04:23:30.776Z,16.24
2017-08-22T04:26:02.820Z,16.21
2017-08-22T04:28:34.323Z,16.18
2017-08-22T04:31:06.130Z,16.17
2017-08-22T04:33:37.784Z,16.16
2017-08-22T04:36:09.150Z,16.15
2017-08-22T04:38:41.019Z,16.16
2017-08-22T04:41:12.413Z,16.16
2017-08-22T04:43:43.847Z,16.17
2017-08-22T04:46:15.628Z,16.19
2017-08-22T04:48:47.144Z,16.19
2017-08-22T04:51:18.489Z,16.22
2017-08-22T04:53:50.303Z,16.24
2017-08-22T04:56:21.683Z,16.25
2017-08-22T04:58:53.083Z,16.26
2017-08-22T05:01:25.271Z,16.28
2017-08-22T05:07:04.713Z,16.29
2017-08-22T05:09:38.501Z,16.31
2017-08-22T05:12:16.735Z,16.38
2017-08-22T05:14:48.670Z,16.43
2017-08-22T05:17:22.008Z,16.51
2017-08-22T05:19:54.835Z,16.58
2017-08-22T05:22:26.529Z,16.65
2017-08-22T05:24:58.056Z,16.72
2017-08-22T05:27:30.069Z,16.87
2017-08-22T05:30:02.663Z,16.98
2017-08-22T05:32:34.271Z,17.13
2017-08-22T05:35:05.621Z,17.21
2017-08-22T05:37:36.989Z,17.29
2017-08-22T05:40:08.807Z,17.32
2017-08-22T05:42:40.145Z,17.42
2017-08-22T05:45:11.633Z,17.58
2017-08-22T05:47:43.503Z,17.70
2017-08-22T05:50:16.259Z,17.69
2017-08-22T05:52:56.174Z,17.81
2017-08-22T05:55:28.237Z,18.05
2017-08-22T05:57:59.814Z,18.26
2017-08-22T06:00:32.077Z,18.39
2017-08-22T06:03:04.114Z,18.54
2017-08-22T06:05:36.236Z,18.73
2017-08-22T06:08:07.692Z,18.81
2017-08-22T06:10:39.037Z,18.90
2017-08-22T06:13:10.752Z,19.09
2017-08-22T06:15:42.144Z,19.30
2017-08-22T06:18:29.008Z,19.41
2017-08-22T06:21:00.465Z,19.50
2017-08-22T06:23:32.116Z,19.64
2017-08-22T06:26:04.700Z,19.78
2017-08-22T06:28:36.690Z,19.75
2017-08-22T06:31:08.052Z,19.84
2017-08-22T06:33:39.359Z,19.91
2017-08-22T06:36:12.825Z,19.85
2017-08-22T06:38:44.376Z,19.80
2017-08-22T06:41:16.782Z,19.84
2017-08-22T06:43:48.176Z,19.91
2017-08-22T06:46:22.756Z,20.06
2017-08-22T06:48:54.075Z,20.18
2017-08-22T06:51:25.448Z,20.45
2017-08-22T06:53:57.196Z,20.63
2017-08-22T06:56:28.792Z,20.75
2017-08-22T06:59:02.732Z,20.86
2017-08-22T07:01:34.104Z,20.94
2017-08-22T07:04:10.128Z,20.89
2017-08-22T07:06:41.852Z,20.80
2017-08-22T07:09:13.183Z,20.87
2017-08-22T07:11:44.527Z,20.76
2017-08-22T07:14:18.106Z,20.93
2017-08-22T07:16:49.488Z,21.10
2017-08-22T07:19:21.776Z,21.07
2017-08-22T07:21:53.306Z,21.16
2017-08-22T07:24:24.752Z,21.31
2017-08-22T07:26:56.663Z,21.43
2017-08-22T07:29:28.065Z,21.51
2017-08-22T07:31:59.591Z,21.58
2017-08-22T07:34:31.627Z,21.69
2017-08-22T07:37:03.300Z,21.75
2017-08-22T07:39:34.724Z,21.70
2017-08-22T07:42:08.235Z,21.60
2017-08-22T07:44:39.661Z,21.70
2017-08-22T07:47:11.029Z,21.74
2017-08-22T07:49:42.868Z,21.74
2017-08-22T07:52:16.252Z,21.71
2017-08-22T07:54:47.689Z,21.75
2017-08-22T07:57:20.712Z,21.73
2017-08-22T07:59:52.063Z,21.81
2017-08-22T08:02:23.777Z,21.85
2017-08-22T08:04:55.277Z,21.91
2017-08-22T08:07:27.235Z,22.04
2017-08-22T08:09:58.650Z,22.12
2017-08-22T08:12:30.109Z,22.24
2017-08-22T08:15:02.316Z,22.37
2017-08-22T08:17:33.644Z,22.45
2017-08-22T08:20:08.128Z,22.46
2017-08-22T08:22:39.538Z,22.57
2017-08-22T08:25:11.008Z,22.68
2017-08-22T08:27:43.005Z,22.57
2017-08-22T08:30:15.535Z,22.48
2017-08-22T08:32:47.340Z,22.35
2017-08-22T08:35:20.468Z,22.51
2017-08-22T08:37:54.185Z,22.35
2017-08-22T08:40:26.010Z,22.49
2017-08-22T08:42:57.555Z,22.81
2017-08-22T08:45:29.442Z,22.90
2017-08-22T08:48:01.156Z,23.19
2017-08-22T08:50:32.532Z,23.47
2017-08-22T08:53:04.640Z,23.31
2017-08-22T08:55:35.998Z,23.40
2017-08-22T08:58:07.457Z,23.69
2017-08-22T09:00:39.205Z,23.88
2017-08-22T09:03:10.651Z,24.14
2017-08-22T09:05:43.401Z,24.43
2017-08-22T09:08:15.879Z,24.66
2017-08-22T09:10:47.233Z,24.65
2017-08-22T09:13:20.581Z,24.74
2017-08-22T09:16:12.003Z,24.85
2017-08-22T09:18:44.157Z,25.04
2017-08-22T09:21:17.116Z,25.14
2017-08-22T09:23:49.936Z,25.28
2017-08-22T09:26:23.150Z,25.51
2017-08-22T09:28:54.532Z,25.59
2017-08-22T09:31:27.124Z,25.69
2017-08-22T09:33:58.507Z,25.70
2017-08-22T09:36:29.842Z,25.82
2017-08-22T09:39:03.072Z,25.94
2017-08-22T09:41:34.483Z,25.93
2017-08-22T09:44:10.926Z,26.11
2017-08-22T09:46:42.257Z,26.14
2017-08-22T09:49:13.622Z,26.55
2017-08-22T09:51:44.976Z,26.70
2017-08-22T09:54:17.056Z,26.77
2017-08-22T09:56:48.596Z,26.71
2017-08-22T09:59:21.577Z,26.80
2017-08-22T10:01:53.357Z,27.00
2017-08-22T10:04:24.727Z,27.23
2017-08-22T10:06:56.613Z,27.26
2017-08-22T10:09:28.306Z,27.62
2017-08-22T10:11:59.666Z,27.58
2017-08-22T10:14:31.338Z,27.51
2017-08-22T10:17:03.860Z,27.74
2017-08-22T10:19:36.092Z,28.01
2017-08-22T10:22:11.377Z,28.42
2017-08-22T10:24:42.863Z,28.41
2017-08-22T10:27:14.212Z,28.61
2017-08-22T10:29:45.960Z,28.66
2017-08-22T10:32:21.559Z,28.67
2017-08-22T10:34:53.188Z,28.61
2017-08-22T10:37:25.129Z,28.46
2017-08-22T10:39:56.464Z,28.30
2017-08-22T10:42:28.154Z,28.53
2017-08-22T10:44:59.544Z,28.78
2017-08-22T10:47:31.234Z,28.82
2017-08-22T10:50:04.858Z,28.81
2017-08-22T10:52:36.235Z,29.20
2017-08-22T10:55:08.247Z,29.87
2017-08-22T10:57:39.610Z,30.15
2017-08-22T11:00:12.362Z,30.61
2017-08-22T11:02:43.688Z,30.36
2017-08-22T11:05:15.016Z,30.74
2017-08-22T11:07:46.715Z,29.80
2017-08-22T11:10:22.933Z,29.76
2017-08-22T11:12:54.709Z,30.02
2017-08-22T11:15:26.083Z,30.27
2017-08-22T11:17:57.512Z,30.53
2017-08-22T11:20:29.313Z,30.66
2017-08-22T11:23:00.774Z,31.55
2017-08-22T11:25:32.150Z,31.70
2017-08-22T11:30:41.840Z,32.21
2017-08-22T11:33:13.197Z,32.60
2017-08-22T11:35:45.067Z,32.89
2017-08-22T11:38:18.011Z,33.27
2017-08-22T11:40:49.537Z,33.03
2017-08-22T11:43:21.815Z,33.27
2017-08-22T11:45:53.256Z,33.64
2017-08-22T11:48:24.774Z,33.87
2017-08-22T11:50:56.206Z,34.14
2017-08-22T11:53:27.600Z,34.48
2017-08-22T11:55:58.980Z,34.97
2017-08-22T11:58:30.389Z,35.50
2017-08-22T12:01:02.129Z,35.83
2017-08-22T12:03:33.463Z,35.80
2017-08-22T12:06:07.058Z,34.96
2017-08-22T12:08:38.479Z,34.87
2017-08-22T12:11:10.113Z,34.43
2017-08-22T12:13:42.046Z,35.64
2017-08-22T12:16:14.457Z,38.13
2017-08-22T12:18:45.908Z,40.02
2017-08-22T12:21:18.321Z,42.50
2017-08-22T12:23:49.910Z,43.19
2017-08-22T12:26:22.642Z,44.51
2017-08-22T12:28:54.676Z,46.71
2017-08-22T12:31:26.087Z,46.78
2017-08-22T12:33:57.423Z,47.28
2017-08-22T12:36:28.792Z,48.76
2017-08-22T12:39:00.158Z,50.35
2017-08-22T12:41:31.489Z,49.91
2017-08-22T12:44:03.858Z,49.99
2017-08-22T12:46:35.361Z,50.94
2017-08-22T12:49:06.686Z,52.38
2017-08-22T12:51:38.031Z,53.92
2017-08-22T12:54:11.301Z,54.86
2017-08-22T12:56:42.708Z,56.01
2017-08-22T12:59:14.238Z,55.69
2017-08-22T13:01:46.859Z,55.18
2017-08-22T13:04:20.529Z,54.91
2017-08-22T13:06:52.082Z,54.10
2017-08-22T13:09:24.189Z,53.57
2017-08-22T13:11:55.873Z,53.34
2017-08-22T13:14:27.239Z,53.65
2017-08-22T13:16:58.569Z,53.89
2017-08-22T13:19:29.868Z,54.66
2017-08-22T13:22:05.110Z,53.93
2017-08-22T13:24:36.725Z,53.83
2017-08-22T13:27:08.085Z,53.56
2017-08-22T13:29:40.321Z,53.74
2017-08-22T13:32:16.908Z,55.24
2017-08-22T13:34:49.212Z,56.12
2017-08-22T13:37:22.903Z,56.21
2017-08-22T13:39:54.270Z,56.52
2017-08-22T13:42:25.621Z,57.51
2017-08-22T13:44:56.987Z,58.10
2017-08-22T13:47:28.577Z,58.09
2017-08-22T13:49:59.963Z,58.22
2017-08-22T13:52:31.321Z,58.63
2017-08-22T13:55:03.049Z,58.73
2017-08-22T14:00:11.407Z,57.02
2017-08-22T14:02:44.963Z,57.37
2017-08-22T14:05:16.775Z,57.92
2017-08-22T14:07:48.175Z,57.77
2017-08-22T14:10:22.922Z,56.73
2017-08-22T14:12:54.296Z,56.21
2017-08-22T14:15:25.738Z,56.09
2017-08-22T14:17:57.215Z,56.68
2017-08-22T14:20:28.568Z,56.98
2017-08-22T14:22:59.939Z,57.16
2017-08-22T14:25:31.498Z,57.40
2017-08-22T14:28:05.292Z,57.33
2017-08-22T14:30:36.736Z,56.46
2017-08-22T14:33:08.192Z,54.58
2017-08-22T14:35:39.689Z,50.50
2017-08-22T14:38:15.833Z,46.09
2017-08-22T14:40:47.324Z,43.60
2017-08-22T14:43:19.646Z,41.73
2017-08-22T14:45:51.183Z,41.93
2017-08-22T14:48:23.386Z,40.03
2017-08-22T14:50:54.746Z,38.24
2017-08-22T14:53:26.310Z,37.73
2017-08-22T14:55:57.717Z,39.57
2017-08-22T14:58:29.061Z,42.89
2017-08-22T15:01:00.953Z,44.10
2017-08-22T15:03:32.348Z,41.92
2017-08-22T15:06:07.199Z,39.32
2017-08-22T15:08:38.745Z,37.76
2017-08-22T15:11:10.336Z,36.05
2017-08-22T15:13:42.537Z,35.24
2017-08-22T15:16:20.824Z,34.74
2017-08-22T15:18:52.612Z,34.15
2017-08-22T15:21:24.748Z,33.90
2017-08-22T15:23:56.165Z,33.61
2017-08-22T15:26:27.751Z,32.72
2017-08-22T15:28:59.241Z,32.20
2017-08-22T15:31:31.715Z,35.21
2017-08-22T15:34:06.410Z,39.30
2017-08-22T15:36:38.111Z,38.47
2017-08-22T15:41:49.218Z,36.09
2017-08-22T15:44:24.819Z,36.69
2017-08-22T15:46:56.952Z,35.86
2017-08-22T15:49:28.588Z,36.14
2017-08-22T15:52:01.376Z,37.28
2017-08-22T15:54:34.016Z,38.31
2017-08-22T15:57:06.320Z,39.83
2017-08-22T15:59:37.987Z,40.14
2017-08-22T16:02:12.851Z,40.44
2017-08-22T16:04:44.644Z,37.97
2017-08-22T16:07:16.967Z,35.71
2017-08-22T16:09:48.448Z,35.50
2017-08-22T16:12:23.964Z,37.63
2017-08-22T16:14:55.742Z,39.47
2017-08-22T16:17:27.573Z,41.43
2017-08-22T16:19:59.091Z,42.62
2017-08-22T16:22:30.688Z,43.07
2017-08-22T16:25:02.735Z,43.25
2017-08-22T16:27:34.419Z,42.97
2017-08-22T16:30:10.051Z,41.49
2017-08-22T16:32:41.514Z,41.31
2017-08-22T16:35:14.022Z,41.07
2017-08-22T16:37:46.332Z,39.68
2017-08-22T16:40:22.286Z,38.47
2017-08-22T16:42:54.644Z,38.78
2017-08-22T16:45:26.940Z,38.65
2017-08-22T16:47:58.664Z,38.38
2017-08-22T16:50:30.947Z,38.85
2017-08-22T16:53:02.868Z,38.98
2017-08-22T16:55:34.394Z,38.74
2017-08-22T16:58:10.299Z,37.62
2017-08-22T17:00:42.734Z,37.98
2017-08-22T17:03:14.327Z,36.92
2017-08-22T17:05:45.877Z,36.00
2017-08-22T17:08:18.132Z,34.73
2017-08-22T17:10:49.605Z,33.26
2017-08-22T17:13:22.426Z,31.88
2017-08-22T17:15:54.212Z,30.89
2017-08-22T17:18:25.868Z,30.34
2017-08-22T17:20:58.457Z,30.15
2017-08-22T17:23:30.000Z,29.31
2017-08-22T17:26:03.644Z,29.12
2017-08-22T17:28:35.541Z,28.89
2017-08-22T17:31:07.797Z,28.49
2017-08-22T17:33:40.028Z,28.15
2017-08-22T17:36:15.544Z,27.91
2017-08-22T17:38:47.117Z,27.69
2017-08-22T17:41:20.762Z,27.50
2017-08-22T17:43:52.418Z,27.37
2017-08-22T17:46:24.222Z,27.18
2017-08-22T17:48:55.647Z,27.01
2017-08-22T17:51:27.274Z,26.96
2017-08-22T17:53:58.752Z,26.88
2017-08-22T17:56:30.067Z,26.78
2017-08-22T17:59:01.742Z,26.69
2017-08-22T18:01:33.266Z,26.65
2017-08-22T18:04:09.292Z,26.58
2017-08-22T18:06:40.733Z,26.54
2017-08-22T18:09:12.057Z,26.45
2017-08-22T18:11:43.473Z,26.34
2017-08-22T18:14:15.653Z,26.21
2017-08-22T18:16:47.831Z,26.11
2017-08-22T18:19:21.267Z,26.02
2017-08-22T18:21:53.517Z,25.99
2017-08-22T18:24:25.054Z,25.90
2017-08-22T18:26:56.417Z,25.80
2017-08-22T18:29:27.716Z,25.71
2017-08-22T18:31:59.070Z,25.65
2017-08-22T18:34:30.428Z,25.59
2017-08-22T18:37:03.049Z,25.54
2017-08-22T18:39:34.424Z,25.53
2017-08-22T18:42:10.112Z,25.46
2017-08-22T18:44:41.431Z,25.42
2017-08-22T18:47:12.761Z,25.40
2017-08-22T18:49:45.739Z,25.32
2017-08-22T18:52:17.276Z,25.26
2017-08-22T18:54:48.633Z,25.22
2017-08-22T18:57:20.779Z,25.18
2017-08-22T18:59:52.478Z,25.17
2017-08-22T19:05:05.741Z,25.11
2017-08-22T19:07:37.248Z,25.06
2017-08-22T19:10:10.198Z,25.02
2017-08-22T19:12:41.572Z,25.03
2017-08-22T19:15:13.007Z,25.03
2017-08-22T19:17:44.360Z,25.02
2017-08-22T19:20:20.381Z,24.95
2017-08-22T19:22:52.747Z,24.89
2017-08-22T19:25:27.336Z,24.84
2017-08-22T19:27:58.885Z,24.83
2017-08-22T19:30:30.401Z,24.78
2017-08-22T19:33:02.107Z,24.77
2017-08-22T19:35:33.596Z,24.76
2017-08-22T19:38:06.187Z,24.74
2017-08-22T19:40:37.625Z,24.73
2017-08-22T19:43:09.025Z,24.73
2017-08-22T19:45:40.719Z,24.67
2017-08-22T19:48:13.896Z,24.64
2017-08-22T19:50:45.328Z,24.59
2017-08-22T19:53:16.885Z,24.59
2017-08-22T19:55:48.313Z,24.50
2017-08-22T19:58:23.548Z,24.43
2017-08-22T20:00:55.273Z,24.30
2017-08-22T20:03:27.150Z,24.20
2017-08-22T20:08:57.980Z,24.05
2017-08-22T20:11:30.529Z,23.95
2017-08-22T20:14:09.576Z,23.87
2017-08-22T20:16:44.980Z,23.81
2017-08-22T20:19:16.640Z,23.74
2017-08-22T20:21:48.305Z,23.69
2017-08-22T20:24:20.919Z,23.63
2017-08-22T20:26:52.757Z,23.56
2017-08-22T20:29:24.656Z,23.45
2017-08-22T20:31:56.701Z,23.43
2017-08-22T20:34:28.929Z,23.39
2017-08-22T20:37:00.893Z,23.33
2017-08-22T20:39:33.422Z,23.28
2017-08-22T20:42:06.909Z,23.27
2017-08-22T20:44:38.983Z,23.39
2017-08-22T20:47:10.430Z,23.53
2017-08-22T20:49:43.149Z,23.61
2017-08-22T20:52:14.694Z,23.71
2017-08-22T20:54:46.444Z,23.77
2017-08-22T20:57:17.880Z,23.82
2017-08-22T20:59:49.285Z,23.86
2017-08-22T21:02:22.027Z,23.94
2017-08-22T21:04:53.734Z,23.94
2017-08-22T21:07:25.145Z,23.90
2017-08-22T21:09:57.277Z,23.88
2017-08-22T21:12:28.664Z,23.81
2017-08-22T21:15:00.116Z,23.75
2017-08-22T21:17:31.523Z,23.67
2017-08-22T21:20:04.756Z,23.61
2017-08-22T21:22:36.075Z,23.55
2017-08-22T21:25:07.423Z,23.57
2017-08-22T21:27:39.457Z,23.58
2017-08-22T21:30:11.012Z,23.58
2017-08-22T21:32:43.590Z,23.52
2017-08-22T21:35:15.008Z,23.59
2017-08-22T21:37:46.374Z,23.52
2017-08-22T21:40:17.911Z,23.47
2017-08-22T21:42:49.391Z,23.53
2017-08-22T21:45:20.804Z,23.66
2017-08-22T21:47:52.204Z,23.62
2017-08-22T21:50:23.710Z,23.59
2017-08-22T21:52:55.767Z,23.58
2017-08-22T21:55:27.213Z,23.60
2017-08-22T21:57:58.800Z,23.46
2017-08-22T22:00:30.273Z,23.41
2017-08-22T22:03:02.513Z,23.37
2017-08-22T22:05:33.926Z,23.29
2017-08-22T22:08:06.584Z,23.21
2017-08-22T22:10:39.004Z,23.23
2017-08-22T22:13:10.725Z,23.22
2017-08-22T22:15:43.331Z,23.27
2017-08-22T22:18:14.792Z,23.34
2017-08-22T22:20:46.696Z,23.33
2017-08-22T22:23:18.042Z,23.31
2017-08-22T22:25:49.548Z,23.31
2017-08-22T22:28:20.934Z,23.32
2017-08-22T22:30:52.281Z,23.25
2017-08-22T22:33:23.731Z,23.11
2017-08-22T22:35:55.088Z,23.01
2017-08-22T22:38:26.467Z,23.01
2017-08-22T22:40:57.870Z,23.04
2017-08-22T22:43:29.302Z,22.92
2017-08-22T22:46:03.740Z,22.92
2017-08-22T22:48:35.094Z,22.96
2017-08-22T22:51:06.461Z,22.88
2017-08-22T22:53:38.526Z,22.90
2017-08-22T22:56:11.194Z,22.71
2017-08-22T22:58:44.918Z,22.53
2017-08-22T23:01:16.259Z,22.46
2017-08-22T23:03:47.705Z,22.51
2017-08-22T23:06:19.069Z,22.64
2017-08-22T23:08:51.300Z,22.52
2017-08-22T23:11:22.788Z,22.27
2017-08-22T23:13:54.662Z,22.09
2017-08-22T23:16:26.642Z,21.96
2017-08-22T23:18:57.965Z,21.92
2017-08-22T23:21:29.309Z,21.92
2017-08-22T23:24:02.547Z,21.82
2017-08-22T23:26:34.102Z,21.74
2017-08-22T23:29:05.426Z,21.63
2017-08-22T23:31:36.800Z,21.56
2017-08-22T23:34:08.192Z,21.49
2017-08-22T23:36:40.809Z,21.46
2017-08-22T23:39:12.522Z,21.49
2017-08-22T23:41:45.443Z,21.47
2017-08-22T23:44:16.913Z,21.46
2017-08-22T23:46:48.370Z,21.40
2017-08-22T23:49:19.694Z,21.37
2017-08-22T23:51:51.026Z,21.34
2017-08-22T23:54:22.373Z,21.30
2017-08-22T23:56:53.678Z,21.27
2017-08-22T23:59:25.019Z,21.22
